sensor_id;sensor_type;location;lat;lon;timestamp;pressure;altitude;pressure_sealevel;temperature;humidity
68506;BME280;55509;50.680;17.942;2022-12-28T00:00:33;100613.35;;;2.39;74.51
68506;BME280;55509;50.680;17.942;2022-12-28T00:03:57;100614.68;;;2.28;75.04
68506;BME280;55509;50.680;17.942;2022-12-28T00:06:58;100611.63;;;2.23;75.50
68506;BME280;55509;50.680;17.942;2022-12-28T00:10:00;100610.05;;;2.21;75.45
68506;BME280;55509;50.680;17.942;2022-12-28T00:13:01;100610.21;;;2.21;75.73
68506;BME280;55509;50.680;17.942;2022-12-28T00:16:10;100608.64;;;2.20;75.66
68506;BME280;55509;50.680;17.942;2022-12-28T00:19:14;100613.28;;;2.18;75.72
68506;BME280;55509;50.680;17.942;2022-12-28T00:22:15;100619.63;;;2.15;75.88
68506;BME280;55509;50.680;17.942;2022-12-28T00:25:17;100618.30;;;2.09;75.97
68506;BME280;55509;50.680;17.942;2022-12-28T00:28:18;100616.77;;;2.03;76.00
68506;BME280;55509;50.680;17.942;2022-12-28T00:31:20;100615.95;;;1.97;76.26
68506;BME280;55509;50.680;17.942;2022-12-28T00:34:21;100611.29;;;1.90;76.28
68506;BME280;55509;50.680;17.942;2022-12-28T00:37:23;100611.48;;;1.83;76.59
68506;BME280;55509;50.680;17.942;2022-12-28T00:40:24;100612.70;;;1.75;76.48
68506;BME280;55509;50.680;17.942;2022-12-28T00:43:26;100610.13;;;1.70;77.03
68506;BME280;55509;50.680;17.942;2022-12-28T00:46:27;100609.21;;;1.67;77.02
68506;BME280;55509;50.680;17.942;2022-12-28T00:49:29;100613.54;;;1.67;77.07
68506;BME280;55509;50.680;17.942;2022-12-28T00:52:30;100613.40;;;1.68;77.17
68506;BME280;55509;50.680;17.942;2022-12-28T00:55:32;100611.66;;;1.68;77.10
68506;BME280;55509;50.680;17.942;2022-12-28T00:58:34;100605.05;;;1.67;77.10
68506;BME280;55509;50.680;17.942;2022-12-28T01:01:35;100607.79;;;1.65;77.16
68506;BME280;55509;50.680;17.942;2022-12-28T01:04:37;100613.78;;;1.62;77.37
68506;BME280;55509;50.680;17.942;2022-12-28T01:07:38;100612.84;;;1.59;77.57
68506;BME280;55509;50.680;17.942;2022-12-28T01:10:40;100606.50;;;1.54;77.77
68506;BME280;55509;50.680;17.942;2022-12-28T01:13:41;100606.89;;;1.49;77.60
68506;BME280;55509;50.680;17.942;2022-12-28T01:16:43;100607.63;;;1.43;77.75
68506;BME280;55509;50.680;17.942;2022-12-28T01:19:44;100602.51;;;1.39;77.90
68506;BME280;55509;50.680;17.942;2022-12-28T01:22:46;100601.92;;;1.37;78.06
68506;BME280;55509;50.680;17.942;2022-12-28T01:25:47;100601.60;;;1.38;78.12
68506;BME280;55509;50.680;17.942;2022-12-28T01:28:48;100600.78;;;1.40;78.21
68506;BME280;55509;50.680;17.942;2022-12-28T01:31:50;100596.68;;;1.42;77.95
68506;BME280;55509;50.680;17.942;2022-12-28T01:34:51;100597.00;;;1.41;77.77
68506;BME280;55509;50.680;17.942;2022-12-28T01:37:55;100591.77;;;1.40;77.93
68506;BME280;55509;50.680;17.942;2022-12-28T01:40:56;100586.35;;;1.38;77.88
68506;BME280;55509;50.680;17.942;2022-12-28T01:47:00;100577.58;;;1.33;78.03
68506;BME280;55509;50.680;17.942;2022-12-28T01:50:08;100568.15;;;1.30;78.03
68506;BME280;55509;50.680;17.942;2022-12-28T01:53:12;100564.23;;;1.26;78.36
68506;BME280;55509;50.680;17.942;2022-12-28T01:56:13;100561.41;;;1.23;78.18
68506;BME280;55509;50.680;17.942;2022-12-28T01:59:16;100555.08;;;1.20;78.32
68506;BME280;55509;50.680;17.942;2022-12-28T02:02:20;100545.61;;;1.15;78.44
68506;BME280;55509;50.680;17.942;2022-12-28T02:05:23;100539.52;;;1.14;78.59
68506;BME280;55509;50.680;17.942;2022-12-28T02:11:28;100532.44;;;1.15;78.37
68506;BME280;55509;50.680;17.942;2022-12-28T02:14:30;100523.60;;;1.15;78.25
68506;BME280;55509;50.680;17.942;2022-12-28T02:17:32;100525.22;;;1.10;78.54
68506;BME280;55509;50.680;17.942;2022-12-28T02:27:25;100527.86;;;0.76;78.83
68506;BME280;55509;50.680;17.942;2022-12-28T02:30:33;100531.42;;;0.67;79.13
68506;BME280;55509;50.680;17.942;2022-12-28T02:33:41;100532.59;;;0.64;79.05
68506;BME280;55509;50.680;17.942;2022-12-28T02:36:46;100530.83;;;0.63;79.13
68506;BME280;55509;50.680;17.942;2022-12-28T02:39:52;100531.91;;;0.65;79.27
68506;BME280;55509;50.680;17.942;2022-12-28T02:42:56;100529.87;;;0.67;79.60
68506;BME280;55509;50.680;17.942;2022-12-28T02:46:07;100528.89;;;0.69;79.59
68506;BME280;55509;50.680;17.942;2022-12-28T02:49:27;100517.97;;;0.68;79.66
68506;BME280;55509;50.680;17.942;2022-12-28T03:02:33;100492.33;;;0.47;79.82
68506;BME280;55509;50.680;17.942;2022-12-28T03:12:20;100477.94;;;0.32;80.45
68506;BME280;55509;50.680;17.942;2022-12-28T03:15:26;100475.98;;;0.30;80.86
68506;BME280;55509;50.680;17.942;2022-12-28T03:18:29;100473.20;;;0.24;80.55
68506;BME280;55509;50.680;17.942;2022-12-28T03:21:51;100474.34;;;0.14;80.71
68506;BME280;55509;50.680;17.942;2022-12-28T03:25:16;100474.50;;;0.07;80.81
68506;BME280;55509;50.680;17.942;2022-12-28T03:28:37;100465.00;;;0.02;81.27
68506;BME280;55509;50.680;17.942;2022-12-28T03:31:58;100457.40;;;-0.04;81.25
68506;BME280;55509;50.680;17.942;2022-12-28T03:35:00;100453.84;;;-0.08;81.47
68506;BME280;55509;50.680;17.942;2022-12-28T03:38:02;100443.90;;;-0.11;81.85
68506;BME280;55509;50.680;17.942;2022-12-28T03:41:05;100441.38;;;-0.16;81.75
68506;BME280;55509;50.680;17.942;2022-12-28T03:44:13;100437.13;;;-0.20;82.49
68506;BME280;55509;50.680;17.942;2022-12-28T03:47:18;100432.98;;;-0.19;82.58
68506;BME280;55509;50.680;17.942;2022-12-28T03:50:21;100438.88;;;-0.19;82.69
68506;BME280;55509;50.680;17.942;2022-12-28T03:53:25;100435.39;;;-0.20;82.74
68506;BME280;55509;50.680;17.942;2022-12-28T03:56:28;100438.84;;;-0.20;82.95
68506;BME280;55509;50.680;17.942;2022-12-28T03:59:30;100434.05;;;-0.18;83.08
68506;BME280;55509;50.680;17.942;2022-12-28T04:02:31;100434.55;;;-0.19;83.09
68506;BME280;55509;50.680;17.942;2022-12-28T04:05:33;100433.66;;;-0.19;83.36
68506;BME280;55509;50.680;17.942;2022-12-28T04:08:35;100428.00;;;-0.18;83.63
68506;BME280;55509;50.680;17.942;2022-12-28T04:11:36;100425.14;;;-0.15;83.59
68506;BME280;55509;50.680;17.942;2022-12-28T04:14:38;100426.86;;;-0.15;83.66
68506;BME280;55509;50.680;17.942;2022-12-28T04:17:39;100423.02;;;-0.17;83.76
68506;BME280;55509;50.680;17.942;2022-12-28T04:20:40;100417.45;;;-0.19;84.08
68506;BME280;55509;50.680;17.942;2022-12-28T04:23:42;100407.38;;;-0.20;84.11
68506;BME280;55509;50.680;17.942;2022-12-28T04:26:43;100405.80;;;-0.21;84.48
68506;BME280;55509;50.680;17.942;2022-12-28T04:29:45;100413.23;;;-0.21;84.66
68506;BME280;55509;50.680;17.942;2022-12-28T04:32:46;100412.70;;;-0.21;85.12
68506;BME280;55509;50.680;17.942;2022-12-28T04:35:48;100414.13;;;-0.19;85.37
68506;BME280;55509;50.680;17.942;2022-12-28T04:38:49;100407.61;;;-0.18;85.56
68506;BME280;55509;50.680;17.942;2022-12-28T04:41:51;100397.10;;;-0.16;85.72
68506;BME280;55509;50.680;17.942;2022-12-28T04:44:53;100392.30;;;-0.15;85.76
68506;BME280;55509;50.680;17.942;2022-12-28T04:47:57;100385.58;;;-0.14;85.38
68506;BME280;55509;50.680;17.942;2022-12-28T04:51:04;100381.81;;;-0.12;85.91
68506;BME280;55509;50.680;17.942;2022-12-28T04:54:05;100378.91;;;-0.11;85.94
68506;BME280;55509;50.680;17.942;2022-12-28T04:57:07;100374.83;;;-0.09;85.75
68506;BME280;55509;50.680;17.942;2022-12-28T05:00:09;100368.06;;;-0.09;86.15
68506;BME280;55509;50.680;17.942;2022-12-28T05:03:10;100361.86;;;-0.09;85.71
68506;BME280;55509;50.680;17.942;2022-12-28T05:06:13;100362.55;;;-0.09;85.78
68506;BME280;55509;50.680;17.942;2022-12-28T05:09:15;100366.69;;;-0.09;85.67
68506;BME280;55509;50.680;17.942;2022-12-28T05:12:19;100368.20;;;-0.10;86.02
68506;BME280;55509;50.680;17.942;2022-12-28T05:15:21;100364.92;;;-0.10;86.07
68506;BME280;55509;50.680;17.942;2022-12-28T05:18:23;100357.53;;;-0.09;85.90
68506;BME280;55509;50.680;17.942;2022-12-28T05:21:25;100357.19;;;-0.09;85.86
68506;BME280;55509;50.680;17.942;2022-12-28T05:24:27;100354.73;;;-0.10;85.89
68506;BME280;55509;50.680;17.942;2022-12-28T05:27:28;100346.23;;;-0.11;86.22
68506;BME280;55509;50.680;17.942;2022-12-28T05:30:30;100339.98;;;-0.12;85.98
68506;BME280;55509;50.680;17.942;2022-12-28T05:33:32;100342.59;;;-0.11;85.92
68506;BME280;55509;50.680;17.942;2022-12-28T05:36:34;100332.55;;;-0.12;86.13
68506;BME280;55509;50.680;17.942;2022-12-28T05:39:38;100328.74;;;-0.12;86.20
68506;BME280;55509;50.680;17.942;2022-12-28T05:42:39;100319.59;;;-0.12;86.17
68506;BME280;55509;50.680;17.942;2022-12-28T05:45:41;100317.36;;;-0.12;85.93
68506;BME280;55509;50.680;17.942;2022-12-28T05:48:42;100312.48;;;-0.13;86.11
68506;BME280;55509;50.680;17.942;2022-12-28T05:51:44;100302.64;;;-0.12;85.89
68506;BME280;55509;50.680;17.942;2022-12-28T05:54:45;100302.66;;;-0.11;85.85
68506;BME280;55509;50.680;17.942;2022-12-28T05:57:47;100307.37;;;-0.09;85.76
68506;BME280;55509;50.680;17.942;2022-12-28T06:00:48;100308.77;;;-0.09;85.76
68506;BME280;55509;50.680;17.942;2022-12-28T06:04:12;100307.92;;;-0.08;86.03
68506;BME280;55509;50.680;17.942;2022-12-28T06:07:14;100303.14;;;-0.06;85.97
68506;BME280;55509;50.680;17.942;2022-12-28T06:10:15;100301.99;;;-0.04;85.99
68506;BME280;55509;50.680;17.942;2022-12-28T06:13:17;100293.56;;;-0.02;85.86
68506;BME280;55509;50.680;17.942;2022-12-28T06:16:23;100290.84;;;0.00;85.77
68506;BME280;55509;50.680;17.942;2022-12-28T06:19:25;100284.15;;;0.03;85.73
68506;BME280;55509;50.680;17.942;2022-12-28T06:22:26;100288.85;;;0.04;85.57
68506;BME280;55509;50.680;17.942;2022-12-28T06:25:28;100288.23;;;0.07;86.04
68506;BME280;55509;50.680;17.942;2022-12-28T06:28:29;100287.10;;;0.10;85.93
68506;BME280;55509;50.680;17.942;2022-12-28T06:31:31;100285.46;;;0.14;85.51
68506;BME280;55509;50.680;17.942;2022-12-28T06:34:33;100285.48;;;0.15;85.48
68506;BME280;55509;50.680;17.942;2022-12-28T06:37:35;100278.48;;;0.18;85.59
68506;BME280;55509;50.680;17.942;2022-12-28T06:40:36;100276.84;;;0.22;85.17
68506;BME280;55509;50.680;17.942;2022-12-28T06:43:38;100273.62;;;0.26;84.97
68506;BME280;55509;50.680;17.942;2022-12-28T06:46:40;100270.20;;;0.27;85.22
68506;BME280;55509;50.680;17.942;2022-12-28T06:49:41;100271.47;;;0.30;84.94
68506;BME280;55509;50.680;17.942;2022-12-28T06:52:43;100271.33;;;0.31;85.26
68506;BME280;55509;50.680;17.942;2022-12-28T06:55:50;100272.08;;;0.33;85.11
68506;BME280;55509;50.680;17.942;2022-12-28T06:58:52;100268.11;;;0.34;85.15
68506;BME280;55509;50.680;17.942;2022-12-28T07:01:54;100269.52;;;0.36;85.25
68506;BME280;55509;50.680;17.942;2022-12-28T07:04:55;100265.48;;;0.40;85.19
68506;BME280;55509;50.680;17.942;2022-12-28T07:07:57;100262.98;;;0.44;85.24
68506;BME280;55509;50.680;17.942;2022-12-28T07:11:02;100262.53;;;0.47;85.08
68506;BME280;55509;50.680;17.942;2022-12-28T07:14:04;100259.89;;;0.53;84.74
68506;BME280;55509;50.680;17.942;2022-12-28T07:17:06;100259.64;;;0.58;84.76
68506;BME280;55509;50.680;17.942;2022-12-28T07:20:07;100250.71;;;0.62;84.62
68506;BME280;55509;50.680;17.942;2022-12-28T07:23:09;100253.19;;;0.64;84.45
68506;BME280;55509;50.680;17.942;2022-12-28T07:26:15;100258.59;;;0.66;84.69
68506;BME280;55509;50.680;17.942;2022-12-28T07:29:17;100263.33;;;0.69;84.49
68506;BME280;55509;50.680;17.942;2022-12-28T07:32:18;100260.49;;;0.74;84.26
68506;BME280;55509;50.680;17.942;2022-12-28T07:35:20;100262.52;;;0.79;84.16
68506;BME280;55509;50.680;17.942;2022-12-28T07:38:21;100266.21;;;0.83;84.10
68506;BME280;55509;50.680;17.942;2022-12-28T07:41:24;100269.44;;;0.88;84.06
68506;BME280;55509;50.680;17.942;2022-12-28T07:44:25;100268.52;;;0.93;84.27
68506;BME280;55509;50.680;17.942;2022-12-28T07:47:28;100268.64;;;0.99;84.10
68506;BME280;55509;50.680;17.942;2022-12-28T07:50:29;100265.08;;;1.04;83.92
68506;BME280;55509;50.680;17.942;2022-12-28T07:53:31;100262.77;;;1.10;83.87
68506;BME280;55509;50.680;17.942;2022-12-28T07:56:33;100262.52;;;1.15;83.52
68506;BME280;55509;50.680;17.942;2022-12-28T07:59:34;100259.65;;;1.18;83.14
68506;BME280;55509;50.680;17.942;2022-12-28T08:02:36;100260.44;;;1.23;83.39
68506;BME280;55509;50.680;17.942;2022-12-28T08:05:37;100262.29;;;1.29;82.93
68506;BME280;55509;50.680;17.942;2022-12-28T08:08:42;100259.30;;;1.36;82.76
68506;BME280;55509;50.680;17.942;2022-12-28T08:11:44;100258.85;;;1.40;82.59
68506;BME280;55509;50.680;17.942;2022-12-28T08:14:46;100262.74;;;1.45;82.35
68506;BME280;55509;50.680;17.942;2022-12-28T08:17:47;100266.81;;;1.49;82.17
68506;BME280;55509;50.680;17.942;2022-12-28T08:20:49;100260.95;;;1.51;81.91
68506;BME280;55509;50.680;17.942;2022-12-28T08:23:50;100253.35;;;1.52;81.91
68506;BME280;55509;50.680;17.942;2022-12-28T08:26:52;100258.11;;;1.58;81.73
68506;BME280;55509;50.680;17.942;2022-12-28T08:29:54;100255.98;;;1.64;81.22
68506;BME280;55509;50.680;17.942;2022-12-28T08:32:55;100259.38;;;1.70;81.20
68506;BME280;55509;50.680;17.942;2022-12-28T08:35:57;100258.29;;;1.77;80.73
68506;BME280;55509;50.680;17.942;2022-12-28T08:38:58;100258.59;;;1.86;80.74
68506;BME280;55509;50.680;17.942;2022-12-28T08:42:00;100263.56;;;1.93;80.32
68506;BME280;55509;50.680;17.942;2022-12-28T08:45:02;100261.36;;;1.96;80.36
68506;BME280;55509;50.680;17.942;2022-12-28T08:48:03;100265.77;;;2.00;80.28
68506;BME280;55509;50.680;17.942;2022-12-28T08:51:06;100259.45;;;2.07;80.11
68506;BME280;55509;50.680;17.942;2022-12-28T08:54:08;100264.41;;;2.13;79.63
68506;BME280;55509;50.680;17.942;2022-12-28T08:57:10;100264.48;;;2.17;79.38
68506;BME280;55509;50.680;17.942;2022-12-28T09:00:12;100264.37;;;2.22;79.22
68506;BME280;55509;50.680;17.942;2022-12-28T09:03:14;100261.33;;;2.28;79.15
68506;BME280;55509;50.680;17.942;2022-12-28T09:06:16;100261.39;;;2.32;78.92
68506;BME280;55509;50.680;17.942;2022-12-28T09:09:18;100260.08;;;2.37;78.85
68506;BME280;55509;50.680;17.942;2022-12-28T09:12:20;100256.06;;;2.47;78.50
68506;BME280;55509;50.680;17.942;2022-12-28T09:15:21;100249.29;;;2.60;77.91
68506;BME280;55509;50.680;17.942;2022-12-28T09:18:23;100238.16;;;2.72;76.81
68506;BME280;55509;50.680;17.942;2022-12-28T09:21:25;100236.61;;;2.88;76.27
68506;BME280;55509;50.680;17.942;2022-12-28T09:24:27;100229.84;;;3.03;75.86
68506;BME280;55509;50.680;17.942;2022-12-28T09:27:28;100223.38;;;3.16;75.92
68506;BME280;55509;50.680;17.942;2022-12-28T09:30:30;100217.56;;;3.24;75.07
68506;BME280;55509;50.680;17.942;2022-12-28T09:33:32;100207.86;;;3.28;74.44
68506;BME280;55509;50.680;17.942;2022-12-28T09:36:52;100199.85;;;3.27;74.21
68506;BME280;55509;50.680;17.942;2022-12-28T09:39:54;100194.27;;;3.25;73.98
68506;BME280;55509;50.680;17.942;2022-12-28T09:42:55;100191.23;;;3.35;73.90
68506;BME280;55509;50.680;17.942;2022-12-28T09:45:57;100187.61;;;3.58;73.47
68506;BME280;55509;50.680;17.942;2022-12-28T09:48:58;100187.45;;;3.82;72.66
68506;BME280;55509;50.680;17.942;2022-12-28T09:52:45;100182.52;;;3.99;71.38
68506;BME280;55509;50.680;17.942;2022-12-28T09:55:26;100172.86;;;4.10;70.43
68506;BME280;55509;50.680;17.942;2022-12-28T09:58:29;100167.85;;;4.19;70.30
68506;BME280;55509;50.680;17.942;2022-12-28T10:01:35;100159.73;;;4.27;69.97
68506;BME280;55509;50.680;17.942;2022-12-28T10:04:38;100153.27;;;4.25;70.14
68506;BME280;55509;50.680;17.942;2022-12-28T10:07:39;100147.32;;;4.17;70.04
68506;BME280;55509;50.680;17.942;2022-12-28T10:10:41;100149.90;;;4.13;70.23
68506;BME280;55509;50.680;17.942;2022-12-28T10:13:43;100138.59;;;4.12;69.73
68506;BME280;55509;50.680;17.942;2022-12-28T10:16:45;100139.61;;;4.11;69.46
68506;BME280;55509;50.680;17.942;2022-12-28T10:19:47;100135.80;;;4.11;69.66
68506;BME280;55509;50.680;17.942;2022-12-28T10:22:52;100131.27;;;4.10;70.17
68506;BME280;55509;50.680;17.942;2022-12-28T10:25:56;100134.58;;;4.12;70.15
68506;BME280;55509;50.680;17.942;2022-12-28T10:28:59;100124.35;;;4.19;69.65
68506;BME280;55509;50.680;17.942;2022-12-28T10:35:02;100129.33;;;4.46;69.12
68506;BME280;55509;50.680;17.942;2022-12-28T10:38:05;100125.39;;;4.64;68.78
68506;BME280;55509;50.680;17.942;2022-12-28T10:41:12;100122.48;;;4.81;68.71
68506;BME280;55509;50.680;17.942;2022-12-28T10:44:25;100124.61;;;4.95;68.41
68506;BME280;55509;50.680;17.942;2022-12-28T10:47:34;100127.25;;;5.16;67.85
68506;BME280;55509;50.680;17.942;2022-12-28T10:53:50;100119.38;;;5.80;66.74
68506;BME280;55509;50.680;17.942;2022-12-28T10:56:52;100116.73;;;6.08;65.73
68506;BME280;55509;50.680;17.942;2022-12-28T11:03:18;100102.16;;;6.34;63.64
68506;BME280;55509;50.680;17.942;2022-12-28T11:06:24;100100.09;;;6.26;64.12
68506;BME280;55509;50.680;17.942;2022-12-28T11:12:28;100093.69;;;6.03;63.76
68506;BME280;55509;50.680;17.942;2022-12-28T11:15:33;100090.20;;;5.92;64.29
68506;BME280;55509;50.680;17.942;2022-12-28T11:18:35;100089.36;;;5.84;64.43
68506;BME280;55509;50.680;17.942;2022-12-28T11:21:37;100085.19;;;5.77;64.96
68506;BME280;55509;50.680;17.942;2022-12-28T11:24:39;100083.97;;;5.76;65.09
68506;BME280;55509;50.680;17.942;2022-12-28T11:27:40;100071.57;;;5.78;65.63
68506;BME280;55509;50.680;17.942;2022-12-28T11:30:42;100052.73;;;5.73;65.66
68506;BME280;55509;50.680;17.942;2022-12-28T11:33:44;100036.71;;;5.60;65.93
68506;BME280;55509;50.680;17.942;2022-12-28T11:36:48;100022.61;;;5.47;66.30
68506;BME280;55509;50.680;17.942;2022-12-28T11:39:50;100019.65;;;5.41;66.77
68506;BME280;55509;50.680;17.942;2022-12-28T11:42:53;100019.30;;;5.47;66.41
68506;BME280;55509;50.680;17.942;2022-12-28T11:45:56;100012.63;;;5.61;66.07
68506;BME280;55509;50.680;17.942;2022-12-28T11:49:21;100011.89;;;5.79;65.45
68506;BME280;55509;50.680;17.942;2022-12-28T12:01:43;99988.25;;;5.43;66.42
68506;BME280;55509;50.680;17.942;2022-12-28T12:04:45;99993.52;;;5.30;66.89
68506;BME280;55509;50.680;17.942;2022-12-28T12:07:47;99993.19;;;5.15;67.42
68506;BME280;55509;50.680;17.942;2022-12-28T12:10:49;99990.92;;;5.00;67.89
68506;BME280;55509;50.680;17.942;2022-12-28T12:14:10;99981.34;;;4.85;68.62
68506;BME280;55509;50.680;17.942;2022-12-28T12:17:35;99975.94;;;4.74;69.13
68506;BME280;55509;50.680;17.942;2022-12-28T12:23:52;99973.85;;;4.61;69.36
68506;BME280;55509;50.680;17.942;2022-12-28T12:27:18;99959.39;;;4.53;69.42
68506;BME280;55509;50.680;17.942;2022-12-28T12:30:19;99947.19;;;4.48;69.67
68506;BME280;55509;50.680;17.942;2022-12-28T12:33:25;99944.40;;;4.48;69.73
68506;BME280;55509;50.680;17.942;2022-12-28T12:49:28;99925.71;;;5.19;66.85
68506;BME280;55509;50.680;17.942;2022-12-28T12:52:41;99916.83;;;5.15;66.71
68506;BME280;55509;50.680;17.942;2022-12-28T13:05:40;99907.40;;;5.22;66.97
68506;BME280;55509;50.680;17.942;2022-12-28T13:08:46;99905.83;;;5.24;66.83
68506;BME280;55509;50.680;17.942;2022-12-28T13:11:49;99905.88;;;5.10;67.25
68506;BME280;55509;50.680;17.942;2022-12-28T13:15:00;99902.06;;;4.94;67.83
68506;BME280;55509;50.680;17.942;2022-12-28T13:18:04;99895.44;;;4.93;68.40
68506;BME280;55509;50.680;17.942;2022-12-28T13:21:06;99896.63;;;5.04;68.37
68506;BME280;55509;50.680;17.942;2022-12-28T13:27:42;99888.23;;;5.16;67.89
68506;BME280;55509;50.680;17.942;2022-12-28T13:30:53;99882.84;;;5.14;67.57
68506;BME280;55509;50.680;17.942;2022-12-28T13:33:55;99876.56;;;5.14;67.66
68506;BME280;55509;50.680;17.942;2022-12-28T13:36:58;99877.08;;;5.17;67.74
68506;BME280;55509;50.680;17.942;2022-12-28T13:40:10;99874.65;;;5.11;67.79
68506;BME280;55509;50.680;17.942;2022-12-28T13:46:31;99869.67;;;4.76;68.73
68506;BME280;55509;50.680;17.942;2022-12-28T13:53:06;99860.30;;;4.46;69.69
68506;BME280;55509;50.680;17.942;2022-12-28T13:56:08;99852.11;;;4.34;70.12
68506;BME280;55509;50.680;17.942;2022-12-28T13:59:13;99851.23;;;4.24;70.78
68506;BME280;55509;50.680;17.942;2022-12-28T14:02:16;99851.41;;;4.16;71.13
68506;BME280;55509;50.680;17.942;2022-12-28T14:05:23;99851.05;;;4.09;71.36
68506;BME280;55509;50.680;17.942;2022-12-28T14:08:31;99844.25;;;4.00;71.81
68506;BME280;55509;50.680;17.942;2022-12-28T14:11:34;99836.25;;;3.95;72.02
68506;BME280;55509;50.680;17.942;2022-12-28T14:14:36;99835.02;;;3.90;72.37
68506;BME280;55509;50.680;17.942;2022-12-28T14:17:38;99834.48;;;3.82;72.68
68506;BME280;55509;50.680;17.942;2022-12-28T14:20:50;99829.79;;;3.75;73.11
68506;BME280;55509;50.680;17.942;2022-12-28T14:23:52;99826.64;;;3.71;73.21
68506;BME280;55509;50.680;17.942;2022-12-28T14:27:02;99817.77;;;3.66;73.44
68506;BME280;55509;50.680;17.942;2022-12-28T14:30:05;99809.91;;;3.60;73.88
68506;BME280;55509;50.680;17.942;2022-12-28T14:33:11;99803.98;;;3.53;74.23
68506;BME280;55509;50.680;17.942;2022-12-28T14:36:21;99805.36;;;3.48;74.26
68506;BME280;55509;50.680;17.942;2022-12-28T14:39:31;99804.48;;;3.44;74.77
68506;BME280;55509;50.680;17.942;2022-12-28T14:42:36;99811.60;;;3.39;74.97
68506;BME280;55509;50.680;17.942;2022-12-28T14:45:42;99809.50;;;3.35;75.09
68506;BME280;55509;50.680;17.942;2022-12-28T14:48:44;99807.05;;;3.32;75.39
68506;BME280;55509;50.680;17.942;2022-12-28T14:51:46;99802.70;;;3.26;75.67
68506;BME280;55509;50.680;17.942;2022-12-28T14:54:51;99798.34;;;3.21;75.89
68506;BME280;55509;50.680;17.942;2022-12-28T14:57:54;99792.40;;;3.16;75.94
68506;BME280;55509;50.680;17.942;2022-12-28T15:00:59;99796.02;;;3.09;76.23
68506;BME280;55509;50.680;17.942;2022-12-28T15:04:01;99801.05;;;3.05;76.32
68506;BME280;55509;50.680;17.942;2022-12-28T15:07:04;99805.21;;;3.05;76.61
68506;BME280;55509;50.680;17.942;2022-12-28T15:10:06;99809.03;;;3.06;76.75
68506;BME280;55509;50.680;17.942;2022-12-28T15:13:08;99811.30;;;3.06;77.00
68506;BME280;55509;50.680;17.942;2022-12-28T15:16:10;99805.23;;;3.09;76.97
68506;BME280;55509;50.680;17.942;2022-12-28T15:19:12;99808.55;;;3.14;76.91
68506;BME280;55509;50.680;17.942;2022-12-28T15:22:14;99804.73;;;3.15;76.90
68506;BME280;55509;50.680;17.942;2022-12-28T15:25:15;99803.17;;;3.18;76.68
68506;BME280;55509;50.680;17.942;2022-12-28T15:28:17;99798.51;;;3.23;76.50
68506;BME280;55509;50.680;17.942;2022-12-28T15:31:19;99796.61;;;3.27;76.30
68506;BME280;55509;50.680;17.942;2022-12-28T15:34:21;99794.52;;;3.27;76.11
68506;BME280;55509;50.680;17.942;2022-12-28T15:37:22;99792.95;;;3.24;75.99
68506;BME280;55509;50.680;17.942;2022-12-28T15:40:24;99789.46;;;3.22;75.88
68506;BME280;55509;50.680;17.942;2022-12-28T15:43:25;99785.65;;;3.21;75.73
68506;BME280;55509;50.680;17.942;2022-12-28T15:46:27;99793.80;;;3.20;75.60
68506;BME280;55509;50.680;17.942;2022-12-28T15:49:29;99795.88;;;3.16;75.50
68506;BME280;55509;50.680;17.942;2022-12-28T15:52:30;99791.87;;;3.15;75.16
68506;BME280;55509;50.680;17.942;2022-12-28T15:55:32;99787.53;;;3.16;74.83
68506;BME280;55509;50.680;17.942;2022-12-28T15:58:34;99782.65;;;3.13;74.62
68506;BME280;55509;50.680;17.942;2022-12-28T16:01:35;99782.83;;;3.10;74.82
68506;BME280;55509;50.680;17.942;2022-12-28T16:04:37;99781.08;;;3.08;74.81
68506;BME280;55509;50.680;17.942;2022-12-28T16:07:39;99784.89;;;3.06;74.98
68506;BME280;55509;50.680;17.942;2022-12-28T16:10:40;99783.48;;;3.03;74.69
68506;BME280;55509;50.680;17.942;2022-12-28T16:13:42;99783.48;;;3.00;74.85
68506;BME280;55509;50.680;17.942;2022-12-28T16:16:44;99780.70;;;2.98;74.86
68506;BME280;55509;50.680;17.942;2022-12-28T16:19:47;99779.30;;;2.96;74.88
68506;BME280;55509;50.680;17.942;2022-12-28T16:22:48;99778.56;;;2.91;75.17
68506;BME280;55509;50.680;17.942;2022-12-28T16:25:50;99777.17;;;2.88;75.27
68506;BME280;55509;50.680;17.942;2022-12-28T16:28:51;99778.73;;;2.89;75.32
68506;BME280;55509;50.680;17.942;2022-12-28T16:31:53;99781.86;;;2.89;75.44
68506;BME280;55509;50.680;17.942;2022-12-28T16:34:55;99789.31;;;2.86;75.49
68506;BME280;55509;50.680;17.942;2022-12-28T16:37:56;99795.56;;;2.85;75.52
68506;BME280;55509;50.680;17.942;2022-12-28T16:40:58;99798.69;;;2.85;75.55
68506;BME280;55509;50.680;17.942;2022-12-28T16:44:00;99797.99;;;2.84;75.68
68506;BME280;55509;50.680;17.942;2022-12-28T16:47:02;99795.89;;;2.81;75.78
68506;BME280;55509;50.680;17.942;2022-12-28T16:50:04;99802.83;;;2.80;75.86
68506;BME280;55509;50.680;17.942;2022-12-28T16:53:06;99806.13;;;2.82;75.72
68506;BME280;55509;50.680;17.942;2022-12-28T16:56:08;99799.20;;;2.84;75.69
68506;BME280;55509;50.680;17.942;2022-12-28T16:59:20;99787.92;;;2.83;75.72
68506;BME280;55509;50.680;17.942;2022-12-28T17:02:22;99793.61;;;2.78;75.85
68506;BME280;55509;50.680;17.942;2022-12-28T17:05:23;99793.08;;;2.75;76.08
68506;BME280;55509;50.680;17.942;2022-12-28T17:08:25;99794.13;;;2.73;76.10
68506;BME280;55509;50.680;17.942;2022-12-28T17:11:26;99794.64;;;2.73;76.17
68506;BME280;55509;50.680;17.942;2022-12-28T17:14:28;99786.98;;;2.72;76.30
68506;BME280;55509;50.680;17.942;2022-12-28T17:17:30;99787.86;;;2.71;76.34
68506;BME280;55509;50.680;17.942;2022-12-28T17:20:34;99793.56;;;2.70;76.37
68506;BME280;55509;50.680;17.942;2022-12-28T17:23:36;99796.88;;;2.70;76.39
68506;BME280;55509;50.680;17.942;2022-12-28T17:26:38;99793.40;;;2.68;76.47